sensor_id;sensor_type;location;lat;lon;timestamp;P1;durP1;ratioP1;P2;durP2;ratioP2
52554;SDS011;38455;52.710;6.502;2022-12-18T00:01:04;101.55;;;33.92;;
52554;SDS011;38455;52.710;6.502;2022-12-18T00:03:34;100.22;;;31.88;;
52554;SDS011;38455;52.710;6.502;2022-12-18T00:06:00;104.70;;;34.08;;
52554;SDS011;38455;52.710;6.502;2022-12-18T00:08:27;113.47;;;37.63;;
52554;SDS011;38455;52.710;6.502;2022-12-18T00:10:53;98.47;;;34.50;;
52554;SDS011;38455;52.710;6.502;2022-12-18T00:13:18;113.97;;;34.65;;
52554;SDS011;38455;52.710;6.502;2022-12-18T00:15:44;98.70;;;35.33;;
52554;SDS011;38455;52.710;6.502;2022-12-18T00:18:10;111.13;;;36.53;;
52554;SDS011;38455;52.710;6.502;2022-12-18T00:20:38;109.97;;;36.28;;
52554;SDS011;38455;52.710;6.502;2022-12-18T00:23:05;104.50;;;35.35;;
52554;SDS011;38455;52.710;6.502;2022-12-18T00:25:35;111.80;;;37.80;;
52554;SDS011;38455;52.710;6.502;2022-12-18T00:28:04;103.38;;;35.20;;
52554;SDS011;38455;52.710;6.502;2022-12-18T00:30:29;107.05;;;36.72;;
52554;SDS011;38455;52.710;6.502;2022-12-18T00:32:55;119.07;;;39.35;;
52554;SDS011;38455;52.710;6.502;2022-12-18T00:35:22;111.45;;;39.22;;
52554;SDS011;38455;52.710;6.502;2022-12-18T00:37:47;107.55;;;36.80;;
52554;SDS011;38455;52.710;6.502;2022-12-18T00:40:13;124.38;;;38.22;;
52554;SDS011;38455;52.710;6.502;2022-12-18T00:42:39;115.03;;;39.22;;
52554;SDS011;38455;52.710;6.502;2022-12-18T00:45:26;114.90;;;38.40;;
52554;SDS011;38455;52.710;6.502;2022-12-18T00:47:54;112.38;;;38.65;;
52554;SDS011;38455;52.710;6.502;2022-12-18T00:50:21;112.35;;;37.97;;
52554;SDS011;38455;52.710;6.502;2022-12-18T00:52:48;112.57;;;37.33;;
52554;SDS011;38455;52.710;6.502;2022-12-18T00:55:14;114.22;;;37.35;;
52554;SDS011;38455;52.710;6.502;2022-12-18T00:57:40;105.38;;;37.72;;
52554;SDS011;38455;52.710;6.502;2022-12-18T01:00:06;113.95;;;39.30;;
52554;SDS011;38455;52.710;6.502;2022-12-18T01:02:34;106.35;;;36.83;;
52554;SDS011;38455;52.710;6.502;2022-12-18T01:05:00;110.68;;;38.38;;
52554;SDS011;38455;52.710;6.502;2022-12-18T01:07:26;116.35;;;38.38;;
52554;SDS011;38455;52.710;6.502;2022-12-18T01:09:51;116.88;;;39.17;;
52554;SDS011;38455;52.710;6.502;2022-12-18T01:12:17;108.75;;;37.58;;
52554;SDS011;38455;52.710;6.502;2022-12-18T01:14:43;97.32;;;39.13;;
52554;SDS011;38455;52.710;6.502;2022-12-18T01:17:08;100.35;;;35.67;;
52554;SDS011;38455;52.710;6.502;2022-12-18T01:19:34;94.75;;;34.65;;
52554;SDS011;38455;52.710;6.502;2022-12-18T01:21:59;97.32;;;36.50;;
52554;SDS011;38455;52.710;6.502;2022-12-18T01:24:25;101.07;;;33.45;;
52554;SDS011;38455;52.710;6.502;2022-12-18T01:26:51;106.25;;;35.58;;
52554;SDS011;38455;52.710;6.502;2022-12-18T01:29:16;96.22;;;33.85;;
52554;SDS011;38455;52.710;6.502;2022-12-18T01:31:42;103.85;;;36.78;;
52554;SDS011;38455;52.710;6.502;2022-12-18T01:34:08;96.22;;;33.17;;
52554;SDS011;38455;52.710;6.502;2022-12-18T01:36:35;97.13;;;32.60;;
52554;SDS011;38455;52.710;6.502;2022-12-18T01:39:06;95.18;;;36.50;;
52554;SDS011;38455;52.710;6.502;2022-12-18T01:41:35;106.55;;;36.03;;
52554;SDS011;38455;52.710;6.502;2022-12-18T01:47:34;112.55;;;36.88;;
52554;SDS011;38455;52.710;6.502;2022-12-18T01:50:08;106.60;;;36.10;;
52554;SDS011;38455;52.710;6.502;2022-12-18T01:52:49;104.78;;;37.78;;
52554;SDS011;38455;52.710;6.502;2022-12-18T01:55:22;115.30;;;36.00;;
52554;SDS011;38455;52.710;6.502;2022-12-18T01:57:51;117.65;;;36.75;;
52554;SDS011;38455;52.710;6.502;2022-12-18T02:00:20;118.60;;;35.72;;
52554;SDS011;38455;52.710;6.502;2022-12-18T02:02:47;109.47;;;34.33;;
52554;SDS011;38455;52.710;6.502;2022-12-18T02:05:16;110.95;;;37.05;;
52554;SDS011;38455;52.710;6.502;2022-12-18T02:08:19;106.90;;;34.63;;
52554;SDS011;38455;52.710;6.502;2022-12-18T02:10:58;108.68;;;36.38;;
52554;SDS011;38455;52.710;6.502;2022-12-18T02:13:41;118.03;;;38.40;;
52554;SDS011;38455;52.710;6.502;2022-12-18T02:16:24;120.30;;;37.35;;
52554;SDS011;38455;52.710;6.502;2022-12-18T02:18:58;109.80;;;37.00;;
52554;SDS011;38455;52.710;6.502;2022-12-18T02:27:02;108.28;;;36.85;;
52554;SDS011;38455;52.710;6.502;2022-12-18T02:29:32;109.05;;;36.15;;
52554;SDS011;38455;52.710;6.502;2022-12-18T02:31:59;99.60;;;35.03;;
52554;SDS011;38455;52.710;6.502;2022-12-18T02:34:28;118.68;;;40.97;;
52554;SDS011;38455;52.710;6.502;2022-12-18T02:36:56;107.38;;;36.55;;
52554;SDS011;38455;52.710;6.502;2022-12-18T02:39:25;107.75;;;35.78;;
52554;SDS011;38455;52.710;6.502;2022-12-18T02:41:51;104.80;;;37.42;;
52554;SDS011;38455;52.710;6.502;2022-12-18T02:44:17;121.80;;;40.00;;
52554;SDS011;38455;52.710;6.502;2022-12-18T02:46:44;107.47;;;33.72;;
52554;SDS011;38455;52.710;6.502;2022-12-18T02:49:30;111.90;;;36.92;;
52554;SDS011;38455;52.710;6.502;2022-12-18T02:55:17;100.68;;;33.78;;
52554;SDS011;38455;52.710;6.502;2022-12-18T02:58:29;108.57;;;34.13;;
52554;SDS011;38455;52.710;6.502;2022-12-18T03:01:03;110.22;;;33.42;;
52554;SDS011;38455;52.710;6.502;2022-12-18T03:06:27;88.05;;;31.38;;
52554;SDS011;38455;52.710;6.502;2022-12-18T03:09:06;104.35;;;33.30;;
52554;SDS011;38455;52.710;6.502;2022-12-18T03:11:40;101.57;;;33.85;;
52554;SDS011;38455;52.710;6.502;2022-12-18T03:14:29;91.22;;;32.53;;
52554;SDS011;38455;52.710;6.502;2022-12-18T03:16:57;106.60;;;36.42;;
52554;SDS011;38455;52.710;6.502;2022-12-18T03:19:26;106.20;;;37.10;;
52554;SDS011;38455;52.710;6.502;2022-12-18T03:21:55;100.93;;;34.72;;
52554;SDS011;38455;52.710;6.502;2022-12-18T03:24:22;106.85;;;35.80;;
52554;SDS011;38455;52.710;6.502;2022-12-18T03:26:52;116.75;;;36.90;;
52554;SDS011;38455;52.710;6.502;2022-12-18T03:29:22;107.72;;;34.45;;
52554;SDS011;38455;52.710;6.502;2022-12-18T03:31:56;97.80;;;31.75;;
52554;SDS011;38455;52.710;6.502;2022-12-18T03:34:29;101.95;;;33.25;;
52554;SDS011;38455;52.710;6.502;2022-12-18T03:36:57;84.85;;;30.50;;
52554;SDS011;38455;52.710;6.502;2022-12-18T03:39:23;93.55;;;32.80;;
52554;SDS011;38455;52.710;6.502;2022-12-18T03:44:52;110.03;;;34.83;;
52554;SDS011;38455;52.710;6.502;2022-12-18T03:47:42;95.55;;;33.58;;
52554;SDS011;38455;52.710;6.502;2022-12-18T03:50:15;95.57;;;32.40;;
52554;SDS011;38455;52.710;6.502;2022-12-18T03:55:14;89.60;;;31.48;;
52554;SDS011;38455;52.710;6.502;2022-12-18T03:57:40;92.68;;;30.98;;
52554;SDS011;38455;52.710;6.502;2022-12-18T04:00:11;90.40;;;30.27;;
52554;SDS011;38455;52.710;6.502;2022-12-18T04:02:40;94.55;;;32.83;;
52554;SDS011;38455;52.710;6.502;2022-12-18T04:05:09;92.13;;;29.38;;
52554;SDS011;38455;52.710;6.502;2022-12-18T04:07:36;82.97;;;30.15;;
52554;SDS011;38455;52.710;6.502;2022-12-18T04:10:03;86.97;;;31.25;;
52554;SDS011;38455;52.710;6.502;2022-12-18T04:12:32;67.97;;;28.63;;
52554;SDS011;38455;52.710;6.502;2022-12-18T04:14:57;80.93;;;29.50;;
52554;SDS011;38455;52.710;6.502;2022-12-18T04:17:23;84.80;;;30.17;;
52554;SDS011;38455;52.710;6.502;2022-12-18T04:19:49;70.70;;;27.23;;
52554;SDS011;38455;52.710;6.502;2022-12-18T04:22:15;89.55;;;31.10;;
52554;SDS011;38455;52.710;6.502;2022-12-18T04:24:40;73.55;;;28.10;;
52554;SDS011;38455;52.710;6.502;2022-12-18T04:27:06;75.03;;;28.13;;
52554;SDS011;38455;52.710;6.502;2022-12-18T04:29:32;81.68;;;29.67;;
52554;SDS011;38455;52.710;6.502;2022-12-18T04:31:57;81.05;;;28.52;;
52554;SDS011;38455;52.710;6.502;2022-12-18T04:34:23;80.57;;;28.90;;
52554;SDS011;38455;52.710;6.502;2022-12-18T04:36:48;74.50;;;27.60;;
52554;SDS011;38455;52.710;6.502;2022-12-18T04:39:14;75.90;;;26.65;;
52554;SDS011;38455;52.710;6.502;2022-12-18T04:41:42;66.28;;;24.95;;
52554;SDS011;38455;52.710;6.502;2022-12-18T04:44:08;69.22;;;23.70;;
52554;SDS011;38455;52.710;6.502;2022-12-18T04:46:34;57.95;;;24.52;;
52554;SDS011;38455;52.710;6.502;2022-12-18T04:48:59;68.95;;;26.48;;
52554;SDS011;38455;52.710;6.502;2022-12-18T04:51:25;68.13;;;25.63;;
52554;SDS011;38455;52.710;6.502;2022-12-18T04:53:51;73.47;;;28.02;;
52554;SDS011;38455;52.710;6.502;2022-12-18T04:56:16;63.67;;;25.67;;
52554;SDS011;38455;52.710;6.502;2022-12-18T04:58:42;70.38;;;26.30;;
52554;SDS011;38455;52.710;6.502;2022-12-18T05:01:09;62.78;;;26.00;;
52554;SDS011;38455;52.710;6.502;2022-12-18T05:03:37;65.88;;;26.45;;
52554;SDS011;38455;52.710;6.502;2022-12-18T05:06:03;60.83;;;23.55;;
52554;SDS011;38455;52.710;6.502;2022-12-18T05:08:30;65.80;;;24.42;;
52554;SDS011;38455;52.710;6.502;2022-12-18T05:10:59;63.30;;;24.63;;
52554;SDS011;38455;52.710;6.502;2022-12-18T05:13:25;64.43;;;25.02;;
52554;SDS011;38455;52.710;6.502;2022-12-18T05:15:52;55.10;;;23.15;;
52554;SDS011;38455;52.710;6.502;2022-12-18T05:18:17;58.63;;;23.60;;
52554;SDS011;38455;52.710;6.502;2022-12-18T05:20:43;56.38;;;21.85;;
52554;SDS011;38455;52.710;6.502;2022-12-18T05:23:09;66.80;;;25.08;;
52554;SDS011;38455;52.710;6.502;2022-12-18T05:25:34;57.97;;;23.17;;
52554;SDS011;38455;52.710;6.502;2022-12-18T05:28:00;59.22;;;24.25;;
52554;SDS011;38455;52.710;6.502;2022-12-18T05:30:26;59.92;;;22.27;;
52554;SDS011;38455;52.710;6.502;2022-12-18T05:32:52;60.92;;;22.10;;
52554;SDS011;38455;52.710;6.502;2022-12-18T05:35:18;61.55;;;24.50;;
52554;SDS011;38455;52.710;6.502;2022-12-18T05:37:44;55.90;;;22.25;;
52554;SDS011;38455;52.710;6.502;2022-12-18T05:40:10;59.35;;;24.20;;
52554;SDS011;38455;52.710;6.502;2022-12-18T05:42:36;51.60;;;20.60;;
52554;SDS011;38455;52.710;6.502;2022-12-18T05:45:02;58.75;;;23.98;;
52554;SDS011;38455;52.710;6.502;2022-12-18T05:47:28;63.53;;;22.30;;
52554;SDS011;38455;52.710;6.502;2022-12-18T05:49:54;55.28;;;22.35;;
52554;SDS011;38455;52.710;6.502;2022-12-18T05:52:20;62.10;;;23.42;;
52554;SDS011;38455;52.710;6.502;2022-12-18T05:54:45;57.40;;;22.63;;
52554;SDS011;38455;52.710;6.502;2022-12-18T05:57:11;48.58;;;21.73;;
52554;SDS011;38455;52.710;6.502;2022-12-18T05:59:37;52.15;;;22.58;;
52554;SDS011;38455;52.710;6.502;2022-12-18T06:02:02;53.13;;;19.83;;
52554;SDS011;38455;52.710;6.502;2022-12-18T06:04:28;58.13;;;22.25;;
52554;SDS011;38455;52.710;6.502;2022-12-18T06:06:56;56.78;;;21.48;;
52554;SDS011;38455;52.710;6.502;2022-12-18T06:09:22;52.60;;;21.58;;
52554;SDS011;38455;52.710;6.502;2022-12-18T06:11:48;53.80;;;21.63;;
52554;SDS011;38455;52.710;6.502;2022-12-18T06:14:16;51.13;;;21.42;;
52554;SDS011;38455;52.710;6.502;2022-12-18T06:16:42;48.45;;;19.58;;
52554;SDS011;38455;52.710;6.502;2022-12-18T06:19:12;54.92;;;20.27;;
52554;SDS011;38455;52.710;6.502;2022-12-18T06:21:40;53.60;;;20.48;;
52554;SDS011;38455;52.710;6.502;2022-12-18T06:24:06;48.40;;;21.17;;
52554;SDS011;38455;52.710;6.502;2022-12-18T06:26:31;50.10;;;19.48;;
52554;SDS011;38455;52.710;6.502;2022-12-18T06:28:57;51.72;;;19.70;;
52554;SDS011;38455;52.710;6.502;2022-12-18T06:31:23;44.58;;;19.23;;
52554;SDS011;38455;52.710;6.502;2022-12-18T06:33:48;46.45;;;19.83;;
52554;SDS011;38455;52.710;6.502;2022-12-18T06:36:14;44.40;;;19.55;;
52554;SDS011;38455;52.710;6.502;2022-12-18T06:38:41;46.58;;;21.13;;
52554;SDS011;38455;52.710;6.502;2022-12-18T06:41:12;48.35;;;19.65;;
52554;SDS011;38455;52.710;6.502;2022-12-18T06:43:40;47.88;;;19.55;;
52554;SDS011;38455;52.710;6.502;2022-12-18T06:46:06;46.92;;;19.90;;
52554;SDS011;38455;52.710;6.502;2022-12-18T06:48:33;41.40;;;19.25;;
52554;SDS011;38455;52.710;6.502;2022-12-18T06:50:59;52.03;;;20.23;;
52554;SDS011;38455;52.710;6.502;2022-12-18T06:53:24;40.65;;;18.73;;
52554;SDS011;38455;52.710;6.502;2022-12-18T06:55:50;54.85;;;21.33;;
52554;SDS011;38455;52.710;6.502;2022-12-18T06:58:16;41.67;;;18.15;;
52554;SDS011;38455;52.710;6.502;2022-12-18T07:00:42;51.97;;;20.52;;
52554;SDS011;38455;52.710;6.502;2022-12-18T07:03:08;47.88;;;21.08;;
52554;SDS011;38455;52.710;6.502;2022-12-18T07:05:34;46.70;;;20.38;;
52554;SDS011;38455;52.710;6.502;2022-12-18T07:08:04;50.85;;;21.65;;
52554;SDS011;38455;52.710;6.502;2022-12-18T07:10:29;48.70;;;20.40;;
52554;SDS011;38455;52.710;6.502;2022-12-18T07:12:55;49.35;;;20.85;;
52554;SDS011;38455;52.710;6.502;2022-12-18T07:15:21;43.85;;;19.20;;
52554;SDS011;38455;52.710;6.502;2022-12-18T07:17:46;46.90;;;18.35;;
52554;SDS011;38455;52.710;6.502;2022-12-18T07:20:12;44.80;;;18.67;;
52554;SDS011;38455;52.710;6.502;2022-12-18T07:22:37;37.60;;;18.05;;
52554;SDS011;38455;52.710;6.502;2022-12-18T07:25:03;40.03;;;17.20;;
52554;SDS011;38455;52.710;6.502;2022-12-18T07:27:29;46.25;;;18.90;;
52554;SDS011;38455;52.710;6.502;2022-12-18T07:29:55;38.53;;;16.58;;
52554;SDS011;38455;52.710;6.502;2022-12-18T07:32:20;41.47;;;18.05;;
52554;SDS011;38455;52.710;6.502;2022-12-18T07:34:46;39.97;;;17.60;;
52554;SDS011;38455;52.710;6.502;2022-12-18T07:37:12;41.83;;;15.75;;
52554;SDS011;38455;52.710;6.502;2022-12-18T07:39:37;39.38;;;16.88;;
52554;SDS011;38455;52.710;6.502;2022-12-18T07:42:03;36.72;;;15.82;;
52554;SDS011;38455;52.710;6.502;2022-12-18T07:44:47;36.85;;;17.35;;
52554;SDS011;38455;52.710;6.502;2022-12-18T07:47:13;40.20;;;16.58;;
52554;SDS011;38455;52.710;6.502;2022-12-18T07:49:38;38.50;;;17.02;;
52554;SDS011;38455;52.710;6.502;2022-12-18T07:52:04;38.03;;;16.42;;
52554;SDS011;38455;52.710;6.502;2022-12-18T07:54:29;42.47;;;18.25;;
52554;SDS011;38455;52.710;6.502;2022-12-18T07:56:55;37.45;;;16.30;;
52554;SDS011;38455;52.710;6.502;2022-12-18T07:59:21;34.30;;;15.68;;
52554;SDS011;38455;52.710;6.502;2022-12-18T08:01:46;36.70;;;16.85;;
52554;SDS011;38455;52.710;6.502;2022-12-18T08:04:12;36.35;;;17.20;;
52554;SDS011;38455;52.710;6.502;2022-12-18T08:06:37;41.88;;;18.83;;
52554;SDS011;38455;52.710;6.502;2022-12-18T08:09:03;40.75;;;16.35;;
52554;SDS011;38455;52.710;6.502;2022-12-18T08:11:29;31.75;;;15.57;;
52554;SDS011;38455;52.710;6.502;2022-12-18T08:13:55;36.00;;;17.60;;
52554;SDS011;38455;52.710;6.502;2022-12-18T08:16:21;44.80;;;18.15;;
52554;SDS011;38455;52.710;6.502;2022-12-18T08:18:47;40.53;;;15.82;;
52554;SDS011;38455;52.710;6.502;2022-12-18T08:21:15;41.88;;;16.23;;
52554;SDS011;38455;52.710;6.502;2022-12-18T08:23:43;38.00;;;16.65;;
52554;SDS011;38455;52.710;6.502;2022-12-18T08:26:13;40.03;;;15.82;;
52554;SDS011;38455;52.710;6.502;2022-12-18T08:28:39;36.40;;;16.70;;
52554;SDS011;38455;52.710;6.502;2022-12-18T08:31:05;32.40;;;15.80;;
52554;SDS011;38455;52.710;6.502;2022-12-18T08:33:32;38.20;;;16.23;;
52554;SDS011;38455;52.710;6.502;2022-12-18T08:35:58;35.50;;;16.08;;
52554;SDS011;38455;52.710;6.502;2022-12-18T08:38:25;34.35;;;15.77;;
52554;SDS011;38455;52.710;6.502;2022-12-18T08:40:57;36.63;;;16.45;;
52554;SDS011;38455;52.710;6.502;2022-12-18T08:43:28;35.65;;;16.52;;
52554;SDS011;38455;52.710;6.502;2022-12-18T08:46:12;37.22;;;15.70;;
52554;SDS011;38455;52.710;6.502;2022-12-18T08:48:41;36.83;;;16.00;;
52554;SDS011;38455;52.710;6.502;2022-12-18T08:51:07;35.22;;;15.57;;
52554;SDS011;38455;52.710;6.502;2022-12-18T08:53:34;35.25;;;15.00;;
52554;SDS011;38455;52.710;6.502;2022-12-18T08:56:00;32.97;;;14.90;;
52554;SDS011;38455;52.710;6.502;2022-12-18T08:58:26;37.67;;;16.02;;
52554;SDS011;38455;52.710;6.502;2022-12-18T09:00:52;34.90;;;15.02;;
52554;SDS011;38455;52.710;6.502;2022-12-18T09:03:18;27.42;;;14.27;;
52554;SDS011;38455;52.710;6.502;2022-12-18T09:05:47;30.92;;;14.82;;
52554;SDS011;38455;52.710;6.502;2022-12-18T09:08:13;30.55;;;15.38;;
52554;SDS011;38455;52.710;6.502;2022-12-18T09:10:42;29.98;;;14.90;;
52554;SDS011;38455;52.710;6.502;2022-12-18T09:13:09;28.88;;;13.48;;
52554;SDS011;38455;52.710;6.502;2022-12-18T09:15:43;26.08;;;12.85;;
52554;SDS011;38455;52.710;6.502;2022-12-18T09:18:16;34.80;;;14.27;;
52554;SDS011;38455;52.710;6.502;2022-12-18T09:20:44;33.40;;;14.95;;
52554;SDS011;38455;52.710;6.502;2022-12-18T09:23:11;29.50;;;14.70;;
52554;SDS011;38455;52.710;6.502;2022-12-18T09:25:37;30.60;;;13.52;;
52554;SDS011;38455;52.710;6.502;2022-12-18T09:28:04;29.38;;;14.52;;
52554;SDS011;38455;52.710;6.502;2022-12-18T09:30:41;31.40;;;14.02;;
52554;SDS011;38455;52.710;6.502;2022-12-18T09:33:09;28.77;;;14.77;;
52554;SDS011;38455;52.710;6.502;2022-12-18T09:35:38;32.05;;;15.55;;
52554;SDS011;38455;52.710;6.502;2022-12-18T09:38:05;25.55;;;12.75;;
52554;SDS011;38455;52.710;6.502;2022-12-18T09:40:36;29.75;;;13.80;;
52554;SDS011;38455;52.710;6.502;2022-12-18T09:43:06;28.70;;;13.90;;
52554;SDS011;38455;52.710;6.502;2022-12-18T09:45:40;30.83;;;15.07;;
52554;SDS011;38455;52.710;6.502;2022-12-18T09:48:19;26.30;;;12.98;;
52554;SDS011;38455;52.710;6.502;2022-12-18T09:50:49;26.92;;;13.48;;
52554;SDS011;38455;52.710;6.502;2022-12-18T09:53:17;30.17;;;12.73;;
52554;SDS011;38455;52.710;6.502;2022-12-18T09:55:46;26.10;;;11.07;;
52554;SDS011;38455;52.710;6.502;2022-12-18T09:58:17;27.38;;;12.48;;
52554;SDS011;38455;52.710;6.502;2022-12-18T10:00:54;20.90;;;12.02;;
52554;SDS011;38455;52.710;6.502;2022-12-18T10:03:20;23.40;;;11.57;;
52554;SDS011;38455;52.710;6.502;2022-12-18T10:08:39;22.80;;;11.50;;
52554;SDS011;38455;52.710;6.502;2022-12-18T10:14:09;25.23;;;13.07;;
52554;SDS011;38455;52.710;6.502;2022-12-18T10:19:51;25.52;;;11.82;;
52554;SDS011;38455;52.710;6.502;2022-12-18T10:25:21;23.75;;;12.23;;
52554;SDS011;38455;52.710;6.502;2022-12-18T10:27:55;21.55;;;11.68;;
52554;SDS011;38455;52.710;6.502;2022-12-18T10:30:23;25.48;;;10.70;;
52554;SDS011;38455;52.710;6.502;2022-12-18T10:32:50;22.30;;;11.75;;
52554;SDS011;38455;52.710;6.502;2022-12-18T10:35:24;22.50;;;12.57;;
52554;SDS011;38455;52.710;6.502;2022-12-18T10:38:00;19.52;;;9.38;;
52554;SDS011;38455;52.710;6.502;2022-12-18T10:40:28;26.45;;;10.70;;
52554;SDS011;38455;52.710;6.502;2022-12-18T10:43:13;19.20;;;9.88;;
52554;SDS011;38455;52.710;6.502;2022-12-18T10:45:40;20.85;;;11.25;;
52554;SDS011;38455;52.710;6.502;2022-12-18T10:48:19;20.45;;;10.60;;
52554;SDS011;38455;52.710;6.502;2022-12-18T10:50:47;19.58;;;11.00;;
52554;SDS011;38455;52.710;6.502;2022-12-18T10:53:22;18.17;;;10.60;;
52554;SDS011;38455;52.710;6.502;2022-12-18T10:55:50;17.13;;;8.70;;
52554;SDS011;38455;52.710;6.502;2022-12-18T10:58:26;16.50;;;9.93;;
52554;SDS011;38455;52.710;6.502;2022-12-18T11:01:12;19.75;;;9.60;;
52554;SDS011;38455;52.710;6.502;2022-12-18T11:06:10;21.38;;;9.88;;
52554;SDS011;38455;52.710;6.502;2022-12-18T11:08:42;20.92;;;9.68;;
52554;SDS011;38455;52.710;6.502;2022-12-18T11:11:22;17.00;;;8.90;;
52554;SDS011;38455;52.710;6.502;2022-12-18T11:13:51;19.00;;;10.02;;
52554;SDS011;38455;52.710;6.502;2022-12-18T11:16:23;18.05;;;8.85;;
52554;SDS011;38455;52.710;6.502;2022-12-18T11:18:48;18.88;;;8.50;;
52554;SDS011;38455;52.710;6.502;2022-12-18T11:21:14;17.42;;;9.02;;
52554;SDS011;38455;52.710;6.502;2022-12-18T11:26:14;14.40;;;7.65;;
52554;SDS011;38455;52.710;6.502;2022-12-18T11:28:41;13.70;;;7.93;;
52554;SDS011;38455;52.710;6.502;2022-12-18T11:33:37;14.02;;;7.95;;
52554;SDS011;38455;52.710;6.502;2022-12-18T11:36:05;13.55;;;8.20;;
52554;SDS011;38455;52.710;6.502;2022-12-18T11:38:37;14.52;;;7.53;;
52554;SDS011;38455;52.710;6.502;2022-12-18T11:41:17;14.43;;;7.20;;
52554;SDS011;38455;52.710;6.502;2022-12-18T11:44:14;13.80;;;7.35;;
52554;SDS011;38455;52.710;6.502;2022-12-18T11:46:51;13.90;;;7.85;;
52554;SDS011;38455;52.710;6.502;2022-12-18T11:49:25;12.73;;;6.57;;
52554;SDS011;38455;52.710;6.502;2022-12-18T11:52:01;11.57;;;5.93;;
52554;SDS011;38455;52.710;6.502;2022-12-18T11:54:39;15.85;;;7.35;;
52554;SDS011;38455;52.710;6.502;2022-12-18T12:08:11;10.02;;;6.35;;
52554;SDS011;38455;52.710;6.502;2022-12-18T12:10:55;12.48;;;6.65;;
52554;SDS011;38455;52.710;6.502;2022-12-18T12:16:36;12.95;;;7.05;;
52554;SDS011;38455;52.710;6.502;2022-12-18T12:19:20;9.07;;;5.43;;
52554;SDS011;38455;52.710;6.502;2022-12-18T12:21:55;11.65;;;5.90;;
52554;SDS011;38455;52.710;6.502;2022-12-18T12:34:45;11.07;;;5.35;;
52554;SDS011;38455;52.710;6.502;2022-12-18T12:37:36;9.73;;;5.65;;
52554;SDS011;38455;52.710;6.502;2022-12-18T12:40:11;11.73;;;5.13;;
52554;SDS011;38455;52.710;6.502;2022-12-18T12:45:37;9.30;;;5.28;;
52554;SDS011;38455;52.710;6.502;2022-12-18T12:48:16;10.52;;;5.35;;
52554;SDS011;38455;52.710;6.502;2022-12-18T12:50:52;10.77;;;6.05;;
52554;SDS011;38455;52.710;6.502;2022-12-18T12:53:26;10.13;;;5.28;;
52554;SDS011;38455;52.710;6.502;2022-12-18T12:55:57;8.82;;;5.07;;
52554;SDS011;38455;52.710;6.502;2022-12-18T13:06:27;9.50;;;4.78;;
52554;SDS011;38455;52.710;6.502;2022-12-18T13:09:15;8.60;;;4.53;;
52554;SDS011;38455;52.710;6.502;2022-12-18T13:11:41;9.98;;;5.28;;
52554;SDS011;38455;52.710;6.502;2022-12-18T13:14:36;9.13;;;5.07;;
52554;SDS011;38455;52.710;6.502;2022-12-18T13:19:47;9.88;;;5.50;;
52554;SDS011;38455;52.710;6.502;2022-12-18T13:22:35;13.60;;;6.47;;
52554;SDS011;38455;52.710;6.502;2022-12-18T13:25:01;10.80;;;5.38;;
52554;SDS011;38455;52.710;6.502;2022-12-18T13:43:27;11.00;;;5.20;;
52554;SDS011;38455;52.710;6.502;2022-12-18T13:51:34;7.78;;;4.60;;
52554;SDS011;38455;52.710;6.502;2022-12-18T13:54:21;9.40;;;4.97;;
52554;SDS011;38455;52.710;6.502;2022-12-18T13:56:49;9.05;;;5.00;;
52554;SDS011;38455;52.710;6.502;2022-12-18T13:59:20;7.93;;;4.32;;
52554;SDS011;38455;52.710;6.502;2022-12-18T14:02:04;8.15;;;4.80;;
52554;SDS011;38455;52.710;6.502;2022-12-18T14:04:37;11.77;;;5.38;;
52554;SDS011;38455;52.710;6.502;2022-12-18T14:07:04;12.02;;;5.15;;
52554;SDS011;38455;52.710;6.502;2022-12-18T14:09:36;11.27;;;5.20;;
52554;SDS011;38455;52.710;6.502;2022-12-18T14:12:06;10.32;;;5.10;;
52554;SDS011;38455;52.710;6.502;2022-12-18T14:14:50;11.73;;;5.93;;
52554;SDS011;38455;52.710;6.502;2022-12-18T14:17:18;12.15;;;5.50;;
52554;SDS011;38455;52.710;6.502;2022-12-18T14:19:45;9.88;;;6.03;;
52554;SDS011;38455;52.710;6.502;2022-12-18T14:22:14;14.10;;;6.18;;
52554;SDS011;38455;52.710;6.502;2022-12-18T14:30:48;12.85;;;6.28;;
52554;SDS011;38455;52.710;6.502;2022-12-18T14:33:24;16.55;;;6.60;;
52554;SDS011;38455;52.710;6.502;2022-12-18T14:35:55;11.57;;;6.32;;
52554;SDS011;38455;52.710;6.502;2022-12-18T14:38:33;12.98;;;6.53;;
52554;SDS011;38455;52.710;6.502;2022-12-18T14:41:03;13.82;;;6.25;;
52554;SDS011;38455;52.710;6.502;2022-12-18T14:43:32;10.63;;;6.20;;
52554;SDS011;38455;52.710;6.502;2022-12-18T14:45:59;12.15;;;6.40;;
52554;SDS011;38455;52.710;6.502;2022-12-18T14:48:36;12.25;;;6.22;;
52554;SDS011;38455;52.710;6.502;2022-12-18T14:51:14;14.23;;;7.07;;
52554;SDS011;38455;52.710;6.502;2022-12-18T14:53:43;16.63;;;8.10;;
52554;SDS011;38455;52.710;6.502;2022-12-18T14:56:13;13.50;;;6.85;;
52554;SDS011;38455;52.710;6.502;2022-12-18T15:01:45;16.48;;;7.90;;
52554;SDS011;38455;52.710;6.502;2022-12-18T15:04:23;14.82;;;5.90;;
52554;SDS011;38455;52.710;6.502;2022-12-18T15:07:06;14.43;;;6.72;;
52554;SDS011;38455;52.710;6.502;2022-12-18T15:09:33;13.15;;;6.65;;
52554;SDS011;38455;52.710;6.502;2022-12-18T15:11:59;12.50;;;6.25;;
52554;SDS011;38455;52.710;6.502;2022-12-18T15:14:39;12.30;;;6.30;;
52554;SDS011;38455;52.710;6.502;2022-12-18T15:17:13;12.23;;;6.18;;
52554;SDS011;38455;52.710;6.502;2022-12-18T15:19:44;13.98;;;7.18;;
52554;SDS011;38455;52.710;6.502;2022-12-18T15:22:17;13.93;;;7.47;;
52554;SDS011;38455;52.710;6.502;2022-12-18T15:24:49;16.58;;;7.38;;
52554;SDS011;38455;52.710;6.502;2022-12-18T15:27:23;16.10;;;8.70;;
52554;SDS011;38455;52.710;6.502;2022-12-18T15:30:39;14.38;;;6.80;;
52554;SDS011;38455;52.710;6.502;2022-12-18T15:32:47;14.63;;;8.55;;
52554;SDS011;38455;52.710;6.502;2022-12-18T15:35:15;16.05;;;7.93;;
52554;SDS011;38455;52.710;6.502;2022-12-18T15:37:41;13.10;;;6.97;;
52554;SDS011;38455;52.710;6.502;2022-12-18T15:40:08;16.08;;;8.38;;
52554;SDS011;38455;52.710;6.502;2022-12-18T15:42:38;14.70;;;8.68;;
52554;SDS011;38455;52.710;6.502;2022-12-18T15:45:22;18.58;;;9.57;;
52554;SDS011;38455;52.710;6.502;2022-12-18T15:47:48;14.77;;;8.10;;
52554;SDS011;38455;52.710;6.502;2022-12-18T15:50:13;16.63;;;9.35;;
52554;SDS011;38455;52.710;6.502;2022-12-18T15:52:40;15.38;;;8.48;;
52554;SDS011;38455;52.710;6.502;2022-12-18T15:55:18;19.13;;;9.07;;
52554;SDS011;38455;52.710;6.502;2022-12-18T15:58:05;15.88;;;7.22;;
52554;SDS011;38455;52.710;6.502;2022-12-18T16:00:31;16.20;;;7.40;;
52554;SDS011;38455;52.710;6.502;2022-12-18T16:02:59;14.68;;;7.43;;
52554;SDS011;38455;52.710;6.502;2022-12-18T16:05:25;15.82;;;9.32;;
52554;SDS011;38455;52.710;6.502;2022-12-18T16:07:52;14.95;;;7.97;;
52554;SDS011;38455;52.710;6.502;2022-12-18T16:10:18;14.85;;;8.15;;
52554;SDS011;38455;52.710;6.502;2022-12-18T16:12:44;18.23;;;9.35;;
52554;SDS011;38455;52.710;6.502;2022-12-18T16:15:10;16.58;;;8.38;;
52554;SDS011;38455;52.710;6.502;2022-12-18T16:17:38;11.90;;;7.28;;
52554;SDS011;38455;52.710;6.502;2022-12-18T16:20:04;14.05;;;9.07;;
52554;SDS011;38455;52.710;6.502;2022-12-18T16:22:31;16.35;;;8.90;;
52554;SDS011;38455;52.710;6.502;2022-12-18T16:24:57;15.82;;;9.07;;
52554;SDS011;38455;52.710;6.502;2022-12-18T16:27:23;17.60;;;8.57;;